Alcobendas, Spain
Current Conditions -  °F | °C
As of 3:00 PM on Thursday 27 Nov 2014 (Local Time) from LEMD Reporting Station
Broken Clouds Broken Clouds  
Wind Chill: 54°   Ceiling: 5500
Heat Index: 54°   Visibility: 6mi
Dew Point: 50°   Wind: 6mph
Humidity: 88%   Direction: 150°SSE
Pressure: 29.5"   Gusts: NA
Location:  40.55°N, 3.64°W
Report Text: LEMD 271400Z 15005KT 120V180 9999 SCT018 BKN055 12/10 Q0999 NOSIG
Loading
Personal Weather Stations






























Interactive Weather Map New forecast layout! Learn more

10-Day Weather Forecast

Advertisements
Track Severe Weather on mobile